Tarbes-Lourdes-Pyrénées Airport

Airport
ICAO code: 
LFBT
IATA Code: 
LDE
Summary
ICAO Region: 
EUR
Territory: 
Location: 
Ossun, Midi-Pyrenees
Serving: 
Tarbes
Elevation: 
1259 ft
Coordinates: 
Aerial View: 
43° 10' 56.782" N, 0° 0' 14.626" W
Metar
Observation
LFBT 302030Z AUTO 17008KT CAVOK 04/01 Q1025 NOSIG
Station
Tarbes Ossun Lourdes
Date/Time
2021-11-30 20:30:00
Wind direction
170°
Wind speed
08 kts
Lowest cloud amount
clouds and visibility OK
Temperature
4°C
Dew point
1°C
Humidity
80%
QNH
1025 hPa
Weather condition
n/a

Description

International airport serving Tarbes.

Climatology

Temperate Marine climate/Oceanic climate (Köppen climate classification Cfb). Moderately cool summer and comparatively warm winter. Prevailing south-westerly winds from the Atlantic Ocean.

Runways

Designator Length Width Surface Rops
2/20 3000 45 ASP Yes/Yes
Airport map: 
Aerial View: 

Accidents and Serious Incidents at or in the vicinity of LFBT

SKYbrary Partners:

Safety knowledge contributed by: